createdAt,value
2022-12-27T00:00:31.481Z,98883.72
2022-12-27T00:02:03.889Z,98887.34
2022-12-27T00:03:35.543Z,98887.47
2022-12-27T00:05:09.248Z,98893.94
2022-12-27T00:06:41.316Z,98890.06
2022-12-27T00:08:13.692Z,98890.75
2022-12-27T00:09:45.333Z,98898.63
2022-12-27T00:11:21.048Z,98898.09
2022-12-27T00:12:53.287Z,98900.78
2022-12-27T00:14:24.867Z,98904.13
2022-12-27T00:16:03.147Z,98909.81
2022-12-27T00:17:34.822Z,98910.47
2022-12-27T00:19:06.445Z,98920.16
2022-12-27T00:20:38.070Z,98915.16
2022-12-27T00:22:09.651Z,98911.50
2022-12-27T00:23:44.627Z,98911.88
2022-12-27T00:25:16.317Z,98920.50
2022-12-27T00:26:47.929Z,98922.03
2022-12-27T00:28:19.589Z,98918.31
2022-12-27T00:29:51.187Z,98926.06
2022-12-27T00:31:23.947Z,98929.72
2022-12-27T00:32:55.512Z,98922.91
2022-12-27T00:34:27.915Z,98931.09
2022-12-27T00:36:01.041Z,98933.50
2022-12-27T00:37:32.652Z,98928.84
2022-12-27T00:39:04.288Z,98932.69
2022-12-27T00:40:39.872Z,98927.72
2022-12-27T00:42:11.505Z,98933.75
2022-12-27T00:43:44.704Z,98952.06
2022-12-27T00:45:16.468Z,98942.81
2022-12-27T00:46:48.012Z,98943.25
2022-12-27T00:48:19.707Z,98953.97
2022-12-27T00:49:51.350Z,98943.94
2022-12-27T00:51:25.031Z,98957.84
2022-12-27T00:52:56.608Z,98958.41
2022-12-27T00:54:28.132Z,98963.19
2022-12-27T00:56:00.401Z,98960.06
2022-12-27T00:57:31.952Z,98961.81
2022-12-27T00:59:04.770Z,98969.22
2022-12-27T01:00:37.012Z,98965.41
2022-12-27T01:02:08.640Z,98973.91
2022-12-27T01:03:40.413Z,98975.69
2022-12-27T01:05:11.998Z,98980.59
2022-12-27T01:06:43.741Z,98978.59
2022-12-27T01:08:15.281Z,98980.69
2022-12-27T01:09:47.143Z,98981.53
2022-12-27T01:11:19.080Z,98981.94
2022-12-27T01:12:50.617Z,98987.50
2022-12-27T01:14:22.258Z,98980.03
2022-12-27T01:15:54.113Z,98989.59
2022-12-27T01:17:25.749Z,98988.16
2022-12-27T01:18:58.285Z,98982.41
2022-12-27T01:20:29.946Z,98997.28
2022-12-27T01:22:01.713Z,98992.19
2022-12-27T01:23:33.283Z,99007.56
2022-12-27T01:25:05.771Z,99006.09
2022-12-27T01:26:37.368Z,99007.53
2022-12-27T01:28:10.981Z,99011.69
2022-12-27T01:29:42.694Z,99009.28
2022-12-27T01:31:20.659Z,99014.47
2022-12-27T01:32:52.255Z,99020.41
2022-12-27T01:34:23.774Z,99022.38
2022-12-27T01:35:55.297Z,99033.09
2022-12-27T01:37:30.277Z,99026.22
2022-12-27T01:39:02.104Z,99034.50
2022-12-27T01:40:36.319Z,99039.69
2022-12-27T01:42:36.708Z,99036.78
2022-12-27T01:44:36.489Z,99036.44
2022-12-27T01:46:08.107Z,99048.75
2022-12-27T01:47:42.650Z,99050.72
2022-12-27T01:49:14.200Z,99051.22
2022-12-27T01:50:54.649Z,99060.31
2022-12-27T01:52:34.929Z,99059.56
2022-12-27T01:54:06.814Z,99066.81
2022-12-27T01:55:44.162Z,99071.53
2022-12-27T01:57:15.858Z,99072.38
2022-12-27T01:58:58.759Z,99068.28
2022-12-27T02:00:30.474Z,99069.50
2022-12-27T02:02:03.411Z,99068.31
2022-12-27T02:03:39.770Z,99075.75
2022-12-27T02:05:14.184Z,99076.94
2022-12-27T02:06:46.902Z,99072.88
2022-12-27T02:08:37.667Z,99069.75
2022-12-27T02:10:09.262Z,99077.53
2022-12-27T02:11:53.634Z,99076.09
2022-12-27T02:13:25.775Z,99076.78
2022-12-27T02:14:58.388Z,99080.66
2022-12-27T02:16:29.968Z,99083.34
2022-12-27T02:18:01.941Z,99085.84
2022-12-27T02:19:53.692Z,99079.44
2022-12-27T02:21:56.105Z,99080.13
2022-12-27T02:23:52.309Z,99086.47
2022-12-27T02:25:30.070Z,99081.88
2022-12-27T02:27:19.332Z,99081.19
2022-12-27T02:29:02.846Z,99092.94
2022-12-27T02:30:35.471Z,99089.78
2022-12-27T02:32:11.900Z,99103.03
2022-12-27T02:33:48.139Z,99108.66
2022-12-27T02:35:50.540Z,99105.66
2022-12-27T02:37:25.329Z,99107.97
2022-12-27T02:39:01.306Z,99106.31
2022-12-27T02:40:53.581Z,99109.81
2022-12-27T02:42:43.931Z,99112.50
2022-12-27T02:44:36.309Z,99114.47
2022-12-27T02:46:47.382Z,99122.88
2022-12-27T02:48:37.518Z,99124.19
2022-12-27T02:50:30.934Z,99120.28
2022-12-27T02:52:39.719Z,99120.09
2022-12-27T02:54:24.511Z,99119.59
2022-12-27T02:56:34.841Z,99125.97
2022-12-27T02:58:15.977Z,99125.84
2022-12-27T03:00:21.368Z,99117.50
2022-12-27T03:02:30.600Z,99133.22
2022-12-27T03:04:19.877Z,99130.19
2022-12-27T03:06:14.455Z,99124.94
2022-12-27T03:07:55.817Z,99129.50
2022-12-27T03:09:53.101Z,99131.91
2022-12-27T03:11:54.716Z,99127.53
2022-12-27T03:14:00.388Z,99128.38
2022-12-27T03:16:02.304Z,99133.81
2022-12-27T03:17:43.655Z,99131.47
2022-12-27T03:19:42.251Z,99138.41
2022-12-27T03:21:44.615Z,99131.34
2022-12-27T03:23:36.449Z,99130.25
2022-12-27T03:25:27.563Z,99133.25
2022-12-27T03:27:02.259Z,99140.66
2022-12-27T03:28:54.124Z,99141.41
2022-12-27T03:30:44.790Z,99139.94
2022-12-27T03:32:35.368Z,99140.16
2022-12-27T03:34:28.260Z,99142.81
2022-12-27T03:36:25.115Z,99142.53
2022-12-27T03:38:05.313Z,99136.75
2022-12-27T03:39:44.653Z,99144.94
2022-12-27T03:41:45.429Z,99149.34
2022-12-27T03:43:17.040Z,99148.00
2022-12-27T03:44:49.267Z,99154.75
2022-12-27T03:46:34.159Z,99151.19
2022-12-27T03:48:06.662Z,99151.19
2022-12-27T03:49:43.130Z,99157.88
2022-12-27T03:51:21.274Z,99154.19
2022-12-27T03:53:02.412Z,99150.19
2022-12-27T03:54:38.377Z,99155.09
2022-12-27T03:56:11.336Z,99148.56
2022-12-27T03:57:43.335Z,99146.41
2022-12-27T03:59:15.179Z,99147.31
2022-12-27T04:00:46.969Z,99154.16
2022-12-27T04:02:19.014Z,99148.41
2022-12-27T04:03:50.768Z,99156.28
2022-12-27T04:05:22.339Z,99156.91
2022-12-27T04:06:54.064Z,99156.97
2022-12-27T04:08:44.044Z,99162.41
2022-12-27T04:10:34.357Z,99157.84
2022-12-27T04:12:25.090Z,99162.56
2022-12-27T04:14:15.284Z,99168.13
2022-12-27T04:16:05.096Z,99162.44
2022-12-27T04:17:55.280Z,99167.78
2022-12-27T04:19:45.412Z,99165.81
2022-12-27T04:21:35.340Z,99163.81
2022-12-27T04:23:25.790Z,99168.69
2022-12-27T04:25:15.932Z,99171.25
2022-12-27T04:27:06.049Z,99169.97
2022-12-27T04:28:56.855Z,99169.34
2022-12-27T04:30:46.974Z,99172.63
2022-12-27T04:32:37.193Z,99171.03
2022-12-27T04:34:27.888Z,99171.94
2022-12-27T04:36:05.810Z,99167.47
2022-12-27T04:37:37.854Z,99168.09
2022-12-27T04:39:09.553Z,99173.66
2022-12-27T04:40:59.878Z,99171.38
2022-12-27T04:42:50.123Z,99169.47
2022-12-27T04:44:40.463Z,99160.06
2022-12-27T04:46:41.409Z,99175.41
2022-12-27T04:48:33.387Z,99166.81
2022-12-27T04:50:31.626Z,99171.97
2022-12-27T04:52:24.121Z,99167.66
2022-12-27T04:54:14.246Z,99171.13
2022-12-27T04:55:45.827Z,99172.63
2022-12-27T04:57:17.410Z,99168.19
2022-12-27T04:59:07.320Z,99173.53
2022-12-27T05:00:57.513Z,99169.16
2022-12-27T05:02:29.257Z,99170.81
2022-12-27T05:04:01.291Z,99165.22
2022-12-27T05:05:34.250Z,99175.84
2022-12-27T05:07:31.006Z,99176.22
2022-12-27T05:09:23.262Z,99181.44
2022-12-27T05:11:13.654Z,99185.03
2022-12-27T05:13:03.506Z,99182.28
2022-12-27T05:14:35.128Z,99183.13
2022-12-27T05:16:07.065Z,99176.91
2022-12-27T05:17:38.612Z,99177.53
2022-12-27T05:19:39.899Z,99184.94
2022-12-27T05:21:11.613Z,99192.59
2022-12-27T05:23:01.560Z,99196.03
2022-12-27T05:24:51.875Z,99186.78
2022-12-27T05:26:28.774Z,99188.47
2022-12-27T05:28:01.244Z,99184.94
2022-12-27T05:29:35.989Z,99187.38
2022-12-27T05:31:07.576Z,99176.16
2022-12-27T05:32:39.196Z,99185.72
2022-12-27T05:34:10.755Z,99189.34
2022-12-27T05:35:42.461Z,99195.88
2022-12-27T05:37:14.121Z,99196.84
2022-12-27T05:38:46.307Z,99187.09
2022-12-27T05:40:17.884Z,99198.31
2022-12-27T05:41:49.461Z,99190.78
2022-12-27T05:43:21.157Z,99197.84
2022-12-27T05:44:52.737Z,99205.50
2022-12-27T05:46:24.426Z,99210.88
2022-12-27T05:47:56.239Z,99213.38
2022-12-27T05:49:27.824Z,99210.81
2022-12-27T05:51:03.787Z,99219.31
2022-12-27T05:52:40.806Z,99211.56
2022-12-27T05:54:12.887Z,99213.38
2022-12-27T05:55:44.635Z,99221.88
2022-12-27T05:57:16.283Z,99221.34
2022-12-27T05:58:48.252Z,99227.94
2022-12-27T06:00:19.829Z,99230.00
2022-12-27T06:01:51.611Z,99219.06
2022-12-27T06:03:23.951Z,99227.63
2022-12-27T06:04:55.715Z,99223.53
2022-12-27T06:06:27.315Z,99232.09
2022-12-27T06:07:58.923Z,99230.91
2022-12-27T06:09:30.504Z,99224.34
2022-12-27T06:11:10.966Z,99232.16
2022-12-27T06:12:42.578Z,99236.47
2022-12-27T06:14:14.111Z,99223.22
2022-12-27T06:15:45.669Z,99230.72
2022-12-27T06:17:17.396Z,99231.06
2022-12-27T06:18:49.108Z,99226.19
2022-12-27T06:20:21.697Z,99228.91
2022-12-27T06:21:53.327Z,99229.63
2022-12-27T06:23:24.927Z,99229.75
2022-12-27T06:24:56.585Z,99234.31
2022-12-27T06:26:29.447Z,99234.31
2022-12-27T06:28:01.059Z,99222.50
2022-12-27T06:29:32.751Z,99228.50
2022-12-27T06:31:04.923Z,99237.97
2022-12-27T06:32:36.526Z,99225.31
2022-12-27T06:34:11.119Z,99233.03
2022-12-27T06:35:42.769Z,99226.25
2022-12-27T06:37:14.471Z,99234.22
2022-12-27T06:38:47.105Z,99230.75
2022-12-27T06:40:20.896Z,99231.50
2022-12-27T06:41:55.253Z,99233.22
2022-12-27T06:43:26.923Z,99236.03
2022-12-27T06:44:58.580Z,99232.84
2022-12-27T06:46:30.305Z,99242.44
2022-12-27T06:48:01.895Z,99238.47
2022-12-27T06:49:33.774Z,99241.88
2022-12-27T06:51:10.103Z,99241.88
2022-12-27T06:52:41.702Z,99245.16
2022-12-27T06:54:13.347Z,99246.34
2022-12-27T06:55:46.593Z,99248.28
2022-12-27T06:57:18.229Z,99251.63
2022-12-27T06:58:51.280Z,99252.69
2022-12-27T07:00:23.008Z,99252.69
2022-12-27T07:01:54.829Z,99248.44
2022-12-27T07:03:26.572Z,99247.53
2022-12-27T07:04:58.333Z,99257.06
2022-12-27T07:06:31.404Z,99255.44
2022-12-27T07:08:03.658Z,99261.50
2022-12-27T07:09:35.275Z,99256.50
2022-12-27T07:11:10.261Z,99257.41
2022-12-27T07:12:41.846Z,99260.03
2022-12-27T07:14:13.675Z,99258.50
2022-12-27T07:15:45.306Z,99261.19
2022-12-27T07:17:16.902Z,99264.69
2022-12-27T07:18:50.146Z,99267.19
2022-12-27T07:20:22.290Z,99263.31
2022-12-27T07:21:53.857Z,99271.06
2022-12-27T07:23:25.441Z,99272.97
2022-12-27T07:24:57.047Z,99266.84
2022-12-27T07:26:30.602Z,99273.63
2022-12-27T07:28:02.377Z,99268.47
2022-12-27T07:29:33.876Z,99275.22
2022-12-27T07:31:09.362Z,99272.78
2022-12-27T07:32:40.904Z,99272.13
2022-12-27T07:34:12.701Z,99276.44
2022-12-27T07:35:45.313Z,99270.50
2022-12-27T07:37:18.115Z,99275.22
2022-12-27T07:38:49.812Z,99285.97
2022-12-27T07:40:22.443Z,99280.03
2022-12-27T07:41:54.051Z,99291.22
2022-12-27T07:43:26.577Z,99290.84
2022-12-27T07:44:59.189Z,99281.59
2022-12-27T07:46:30.858Z,99286.59
2022-12-27T07:48:02.453Z,99284.38
2022-12-27T07:49:34.132Z,99280.25
2022-12-27T07:51:06.119Z,99279.56
2022-12-27T07:52:37.640Z,99288.19
2022-12-27T07:54:09.217Z,99286.53
2022-12-27T07:55:40.749Z,99296.00
2022-12-27T07:57:12.356Z,99292.63
2022-12-27T07:58:46.428Z,99292.63
2022-12-27T08:00:18.223Z,99292.50
2022-12-27T08:02:04.982Z,99288.19
2022-12-27T08:03:37.764Z,99297.50
2022-12-27T08:05:09.783Z,99300.19
2022-12-27T08:06:41.447Z,99299.91
2022-12-27T08:08:16.714Z,99293.78
2022-12-27T08:09:48.735Z,99294.59
2022-12-27T08:11:20.921Z,99297.31
2022-12-27T08:12:52.693Z,99296.44
2022-12-27T08:14:24.404Z,99291.00
2022-12-27T08:15:56.189Z,99297.88
2022-12-27T08:17:28.426Z,99298.94
2022-12-27T08:19:06.435Z,99294.59
2022-12-27T08:20:39.866Z,99283.19
2022-12-27T08:22:11.581Z,99288.19
2022-12-27T08:23:43.315Z,99291.47
2022-12-27T08:25:14.908Z,99298.03
2022-12-27T08:26:46.648Z,99297.47
2022-12-27T08:28:18.826Z,99291.53
2022-12-27T08:29:50.451Z,99286.38
2022-12-27T08:31:22.142Z,99294.03
2022-12-27T08:32:53.753Z,99289.88
2022-12-27T08:34:25.381Z,99290.56
2022-12-27T08:35:58.572Z,99288.75
2022-12-27T08:37:30.201Z,99280.13
2022-12-27T08:39:01.934Z,99283.78
2022-12-27T08:40:33.767Z,99279.78
2022-12-27T08:42:05.424Z,99278.22
2022-12-27T08:43:37.035Z,99277.38
2022-12-27T08:45:09.224Z,99291.06
2022-12-27T08:46:41.246Z,99287.34
2022-12-27T08:48:12.958Z,99287.81
2022-12-27T08:49:44.627Z,99283.56
2022-12-27T08:51:24.813Z,99292.16
2022-12-27T08:53:03.644Z,99286.69
2022-12-27T08:54:35.419Z,99286.44
2022-12-27T08:56:07.250Z,99291.59
2022-12-27T08:57:38.822Z,99276.19
2022-12-27T08:59:10.503Z,99287.41
2022-12-27T09:00:42.038Z,99282.72
2022-12-27T09:02:14.719Z,99280.78
2022-12-27T09:03:46.585Z,99282.41
2022-12-27T09:05:19.564Z,99287.19
2022-12-27T09:06:51.220Z,99295.78
2022-12-27T09:08:22.868Z,99291.47
2022-12-27T09:09:54.496Z,99294.88
2022-12-27T09:11:29.434Z,99300.56
2022-12-27T09:13:01.113Z,99296.13
2022-12-27T09:14:32.863Z,99294.56
2022-12-27T09:16:09.080Z,99297.69
2022-12-27T09:17:41.546Z,99302.78
2022-12-27T09:19:13.489Z,99303.38
2022-12-27T09:20:45.075Z,99299.06
2022-12-27T09:22:16.683Z,99305.38
2022-12-27T09:23:49.484Z,99301.09
2022-12-27T09:25:21.195Z,99305.06
2022-12-27T09:26:52.787Z,99298.00
2022-12-27T09:28:24.623Z,99303.53
2022-12-27T09:29:56.211Z,99292.91
2022-12-27T09:31:28.874Z,99299.28
2022-12-27T09:33:00.533Z,99295.31
2022-12-27T09:34:32.298Z,99300.09
2022-12-27T09:36:07.747Z,99306.28
2022-12-27T09:37:39.329Z,99302.41
2022-12-27T09:39:13.759Z,99302.06
2022-12-27T09:40:54.248Z,99307.16
2022-12-27T09:43:19.596Z,99302.97
2022-12-27T09:45:09.022Z,99308.41
2022-12-27T09:46:42.598Z,99319.59
2022-12-27T09:48:31.104Z,99304.28
2022-12-27T09:50:20.626Z,99304.19
2022-12-27T09:52:14.628Z,99308.78
2022-12-27T09:53:53.148Z,99310.22
2022-12-27T09:55:43.074Z,99309.78
2022-12-27T09:57:21.304Z,99310.19
2022-12-27T09:58:55.675Z,99309.84
2022-12-27T10:00:35.335Z,99315.66
2022-12-27T10:02:34.997Z,99314.31
2022-12-27T10:04:13.064Z,99306.94
2022-12-27T10:05:51.975Z,99307.59
2022-12-27T10:07:37.718Z,99304.56
2022-12-27T10:09:29.222Z,99298.84
2022-12-27T10:11:34.818Z,99291.47
2022-12-27T10:13:11.832Z,99294.63
2022-12-27T10:15:03.184Z,99291.78
2022-12-27T10:16:52.657Z,99293.53
2022-12-27T10:18:43.023Z,99292.88
2022-12-27T10:20:34.809Z,99288.44
2022-12-27T10:22:24.945Z,99284.91
2022-12-27T10:24:00.352Z,99286.31
2022-12-27T10:25:35.464Z,99283.44
2022-12-27T10:27:28.174Z,99278.44
2022-12-27T10:29:04.608Z,99275.50
2022-12-27T10:30:36.264Z,99283.09
2022-12-27T10:32:12.594Z,99278.06
2022-12-27T10:33:47.393Z,99272.34
2022-12-27T10:35:21.210Z,99279.66
2022-12-27T10:36:53.394Z,99279.66
2022-12-27T10:38:31.587Z,99281.84
2022-12-27T10:40:16.047Z,99271.13
2022-12-27T10:41:57.241Z,99265.56
2022-12-27T10:43:36.618Z,99264.25
2022-12-27T10:45:26.653Z,99262.66
2022-12-27T10:46:59.832Z,99265.56
2022-12-27T10:48:47.488Z,99265.94
2022-12-27T10:50:26.159Z,99263.63
2022-12-27T10:52:09.927Z,99267.63
2022-12-27T10:53:59.007Z,99271.13
2022-12-27T10:55:32.971Z,99271.78
2022-12-27T10:57:27.495Z,99270.75
2022-12-27T10:59:10.977Z,99268.53
2022-12-27T11:00:53.053Z,99262.81
2022-12-27T11:02:24.802Z,99267.91
2022-12-27T11:04:10.136Z,99271.19
2022-12-27T11:05:43.479Z,99262.00
2022-12-27T11:07:18.692Z,99263.59
2022-12-27T11:08:51.722Z,99262.34
2022-12-27T11:10:29.174Z,99264.19
2022-12-27T11:12:12.988Z,99270.50
2022-12-27T11:13:45.060Z,99258.81
2022-12-27T11:15:20.216Z,99266.19
2022-12-27T11:16:51.917Z,99259.22
2022-12-27T11:18:23.621Z,99255.41
2022-12-27T11:19:58.424Z,99246.97
2022-12-27T11:21:31.540Z,99251.69
2022-12-27T11:23:09.086Z,99251.75
2022-12-27T11:24:47.346Z,99249.59
2022-12-27T11:26:23.867Z,99247.81
2022-12-27T11:28:04.522Z,99237.06
2022-12-27T11:29:37.497Z,99232.59
2022-12-27T11:31:16.847Z,99238.63
2022-12-27T11:32:48.751Z,99232.63
2022-12-27T11:34:33.962Z,99234.72
2022-12-27T11:36:10.626Z,99230.28
2022-12-27T11:37:42.807Z,99221.34
2022-12-27T11:39:37.960Z,99213.47
2022-12-27T11:41:20.826Z,99219.81
2022-12-27T11:43:05.935Z,99209.31
2022-12-27T11:44:43.081Z,99207.50
2022-12-27T11:46:27.459Z,99217.94
2022-12-27T11:48:07.718Z,99217.22
2022-12-27T11:49:55.325Z,99219.47
2022-12-27T11:51:49.323Z,99223.66
2022-12-27T11:53:40.279Z,99226.94
2022-12-27T11:55:34.077Z,99218.47
2022-12-27T11:57:47.527Z,99224.09
2022-12-27T11:59:28.202Z,99219.84
2022-12-27T12:01:38.295Z,99225.75
2022-12-27T12:03:40.745Z,99215.91
2022-12-27T12:05:44.222Z,99224.88
2022-12-27T12:07:42.183Z,99219.66
2022-12-27T12:09:50.702Z,99217.38
2022-12-27T12:11:55.894Z,99223.50
2022-12-27T12:13:52.460Z,99219.38
2022-12-27T12:15:24.157Z,99227.81
2022-12-27T12:17:14.310Z,99225.88
2022-12-27T12:18:58.683Z,99222.81
2022-12-27T12:20:48.736Z,99217.69
2022-12-27T12:22:44.337Z,99208.09
2022-12-27T12:24:34.280Z,99207.53
2022-12-27T12:26:11.015Z,99207.28
2022-12-27T12:27:59.331Z,99203.00
2022-12-27T12:29:59.517Z,99206.34
2022-12-27T12:32:01.744Z,99213.06
2022-12-27T12:33:33.252Z,99211.50
2022-12-27T12:35:29.349Z,99209.84
2022-12-27T12:37:15.971Z,99209.50
2022-12-27T12:38:57.432Z,99214.41
2022-12-27T12:41:12.769Z,99211.78
2022-12-27T12:43:02.810Z,99200.50
2022-12-27T12:44:41.864Z,99213.34
2022-12-27T12:46:32.316Z,99213.44
2022-12-27T12:48:20.525Z,99202.81
2022-12-27T12:50:24.682Z,99207.66
2022-12-27T12:52:14.547Z,99212.41
2022-12-27T12:54:03.035Z,99215.78
2022-12-27T12:55:43.194Z,99211.31
2022-12-27T12:57:21.032Z,99215.94
2022-12-27T12:59:30.934Z,99207.19
2022-12-27T13:01:41.219Z,99208.50
2022-12-27T13:03:30.227Z,99202.84
2022-12-27T13:05:11.691Z,99204.13
2022-12-27T13:07:15.556Z,99205.88
2022-12-27T13:08:56.554Z,99203.09
2022-12-27T13:10:46.139Z,99202.44
2022-12-27T13:13:02.745Z,99188.75
2022-12-27T13:14:40.029Z,99192.78
2022-12-27T13:16:23.564Z,99192.69
2022-12-27T13:18:30.123Z,99196.75
2022-12-27T13:20:21.085Z,99192.38
2022-12-27T13:22:29.861Z,99183.69
2022-12-27T13:24:29.759Z,99186.78
2022-12-27T13:26:14.513Z,99183.19
2022-12-27T13:28:36.317Z,99182.75
2022-12-27T13:30:21.544Z,99180.28
2022-12-27T13:32:15.419Z,99189.44
2022-12-27T13:34:08.765Z,99193.94
2022-12-27T13:35:46.253Z,99196.00
2022-12-27T13:37:45.426Z,99193.00
2022-12-27T13:39:27.812Z,99197.53
2022-12-27T13:41:02.141Z,99191.66
2022-12-27T13:42:42.770Z,99199.88
2022-12-27T13:44:29.628Z,99195.44
2022-12-27T13:46:42.844Z,99200.34
2022-12-27T13:48:33.008Z,99199.13
2022-12-27T13:50:13.865Z,99196.00
2022-12-27T13:51:50.648Z,99191.94
2022-12-27T13:53:37.496Z,99186.72
2022-12-27T13:55:22.074Z,99187.78
2022-12-27T13:57:02.850Z,99178.63
2022-12-27T13:58:59.564Z,99182.78
2022-12-27T14:00:51.648Z,99187.25
2022-12-27T14:02:35.406Z,99181.00
2022-12-27T14:04:20.573Z,99179.16
2022-12-27T14:06:16.788Z,99184.97
2022-12-27T14:08:06.893Z,99179.97
2022-12-27T14:10:05.967Z,99181.16
2022-12-27T14:11:46.323Z,99181.66
2022-12-27T14:13:36.630Z,99175.31
2022-12-27T14:15:15.316Z,99178.53
2022-12-27T14:17:11.530Z,99171.78
2022-12-27T14:19:03.008Z,99176.03
2022-12-27T14:21:04.388Z,99174.56
2022-12-27T14:22:35.907Z,99179.16
2022-12-27T14:24:23.102Z,99180.69
2022-12-27T14:26:21.746Z,99179.16
2022-12-27T14:28:30.804Z,99178.63
2022-12-27T14:30:23.857Z,99173.00
2022-12-27T14:32:16.285Z,99177.69
2022-12-27T14:34:00.146Z,99183.91
2022-12-27T14:36:04.210Z,99183.38
2022-12-27T14:38:03.360Z,99180.13
2022-12-27T14:40:00.025Z,99177.09
2022-12-27T14:41:46.415Z,99180.84
2022-12-27T14:43:30.167Z,99180.41
2022-12-27T14:45:16.975Z,99190.06
2022-12-27T14:47:16.524Z,99189.22
2022-12-27T14:49:30.584Z,99197.25
2022-12-27T14:51:14.914Z,99193.06
2022-12-27T14:53:17.782Z,99194.81
2022-12-27T14:55:03.283Z,99196.59
2022-12-27T14:57:11.823Z,99193.47
2022-12-27T14:58:56.141Z,99188.53
2022-12-27T15:00:35.092Z,99183.66
2022-12-27T15:02:27.727Z,99183.75
2022-12-27T15:04:08.451Z,99187.09
2022-12-27T15:05:54.765Z,99187.28
2022-12-27T15:07:41.536Z,99186.34
2022-12-27T15:09:39.707Z,99186.75
2022-12-27T15:11:42.524Z,99183.88
2022-12-27T15:13:22.887Z,99181.50
2022-12-27T15:15:03.403Z,99182.34
2022-12-27T15:16:56.441Z,99181.50
2022-12-27T15:18:49.609Z,99184.53
2022-12-27T15:20:34.653Z,99188.28
2022-12-27T15:22:20.854Z,99191.69
2022-12-27T15:24:02.288Z,99185.41
2022-12-27T15:25:52.561Z,99189.78
2022-12-27T15:27:29.333Z,99180.63
2022-12-27T15:29:27.011Z,99175.09
2022-12-27T15:31:18.877Z,99175.56
2022-12-27T15:33:15.829Z,99167.53
2022-12-27T15:35:06.701Z,99174.16
2022-12-27T15:36:48.593Z,99166.09
2022-12-27T15:38:35.214Z,99169.44
2022-12-27T15:40:34.248Z,99158.31
2022-12-27T15:42:21.728Z,99161.09
2022-12-27T15:44:05.500Z,99163.22
2022-12-27T15:46:13.623Z,99155.56
2022-12-27T15:48:16.144Z,99156.91
2022-12-27T15:50:00.691Z,99151.75
2022-12-27T15:51:42.442Z,99152.03
2022-12-27T15:53:32.923Z,99147.59
2022-12-27T15:55:16.083Z,99154.75
2022-12-27T15:56:59.778Z,99145.84
2022-12-27T15:58:31.628Z,99149.56
2022-12-27T16:00:06.669Z,99149.66
2022-12-27T16:01:45.163Z,99145.47
2022-12-27T16:03:37.390Z,99141.19
2022-12-27T16:05:08.916Z,99146.13
2022-12-27T16:06:43.602Z,99144.00
2022-12-27T16:08:26.432Z,99139.22
2022-12-27T16:09:58.223Z,99150.38
2022-12-27T16:12:07.818Z,99150.47
2022-12-27T16:13:50.896Z,99144.38
2022-12-27T16:15:43.135Z,99137.16
2022-12-27T16:17:20.876Z,99142.06
2022-12-27T16:19:10.539Z,99135.59
2022-12-27T16:20:54.490Z,99143.91
2022-12-27T16:22:38.201Z,99139.22
2022-12-27T16:24:19.409Z,99130.97
2022-12-27T16:26:00.696Z,99136.97
2022-12-27T16:27:32.994Z,99130.88
2022-12-27T16:29:17.225Z,99138.94
2022-12-27T16:30:50.005Z,99130.72
2022-12-27T16:32:25.160Z,99135.69
2022-12-27T16:33:59.634Z,99144.94
2022-12-27T16:35:32.621Z,99145.31
2022-12-27T16:37:04.326Z,99136.81
2022-12-27T16:38:45.069Z,99137.91
2022-12-27T16:40:42.959Z,99144.50
2022-12-27T16:42:15.503Z,99136.81
2022-12-27T16:43:53.095Z,99137.63
2022-12-27T16:45:33.862Z,99137.41
2022-12-27T16:47:41.119Z,99138.63
2022-12-27T16:49:30.769Z,99142.13
2022-12-27T16:51:34.402Z,99138.50
2022-12-27T16:53:30.096Z,99148.56
2022-12-27T16:55:12.252Z,99148.00
2022-12-27T16:56:48.155Z,99142.72
2022-12-27T16:58:29.116Z,99146.72
2022-12-27T17:00:00.929Z,99147.00
2022-12-27T17:01:35.234Z,99150.31
2022-12-27T17:03:36.303Z,99145.63
2022-12-27T17:05:16.879Z,99145.16
2022-12-27T17:06:54.084Z,99146.56
2022-12-27T17:08:30.427Z,99142.06
2022-12-27T17:10:45.571Z,99153.16
2022-12-27T17:12:18.523Z,99145.31
2022-12-27T17:13:55.180Z,99145.41
2022-12-27T17:15:27.440Z,99144.28
2022-12-27T17:17:02.997Z,99142.81
2022-12-27T17:18:39.194Z,99147.06
2022-12-27T17:20:16.702Z,99141.22
2022-12-27T17:21:57.031Z,99141.22
2022-12-27T17:23:29.176Z,99136.69
2022-12-27T17:25:01.180Z,99136.34
2022-12-27T17:26:51.080Z,99136.34
2022-12-27T17:28:41.253Z,99126.63
2022-12-27T17:30:27.581Z,99133.88
2022-12-27T17:32:26.717Z,99132.56
2022-12-27T17:34:30.939Z,99128.75
2022-12-27T17:36:17.443Z,99130.16
2022-12-27T17:38:10.566Z,99124.63
2022-12-27T17:40:10.316Z,99129.19
2022-12-27T17:42:52.766Z,99121.75
2022-12-27T17:44:42.346Z,99114.59
2022-12-27T17:46:36.530Z,99107.94
2022-12-27T17:48:13.497Z,99100.41
2022-12-27T17:49:45.143Z,99109.31
2022-12-27T17:51:22.708Z,99104.22
2022-12-27T17:53:25.098Z,99105.91
2022-12-27T17:55:32.979Z,99106.75
2022-12-27T17:57:24.639Z,99105.09
2022-12-27T17:59:10.447Z,99106.91
2022-12-27T18:00:55.640Z,99103.06
2022-12-27T18:02:38.167Z,99103.41
2022-12-27T18:04:35.622Z,99096.19
2022-12-27T18:06:07.666Z,99100.09
2022-12-27T18:07:39.370Z,99097.72
2022-12-27T18:09:34.947Z,99087.66
2022-12-27T18:11:10.276Z,99091.91
2022-12-27T18:12:45.290Z,99099.56
2022-12-27T18:14:16.961Z,99099.06
2022-12-27T18:15:50.530Z,99101.22
2022-12-27T18:17:29.092Z,99105.69
2022-12-27T18:19:03.163Z,99104.13
2022-12-27T18:20:37.584Z,99101.69
2022-12-27T18:22:19.408Z,99102.69
2022-12-27T18:23:53.527Z,99098.69
2022-12-27T18:25:30.602Z,99097.06
2022-12-27T18:27:05.404Z,99105.84
2022-12-27T18:28:38.537Z,99101.59
2022-12-27T18:30:11.486Z,99108.50
2022-12-27T18:31:51.214Z,99106.66
2022-12-27T18:33:48.694Z,99105.50
2022-12-27T18:35:24.387Z,99110.34
2022-12-27T18:37:21.244Z,99108.47
2022-12-27T18:39:02.435Z,99110.59
2022-12-27T18:40:34.723Z,99109.06
2022-12-27T18:42:18.630Z,99101.00
2022-12-27T18:43:57.676Z,99090.06
2022-12-27T18:45:33.829Z,99093.03
2022-12-27T18:47:05.689Z,99092.28
2022-12-27T18:48:37.441Z,99097.97
2022-12-27T18:50:17.931Z,99094.75
2022-12-27T18:51:49.886Z,99083.72
2022-12-27T18:53:31.668Z,99081.16
2022-12-27T18:55:15.485Z,99075.22
2022-12-27T18:56:52.249Z,99076.97
2022-12-27T18:58:23.915Z,99059.22
2022-12-27T19:00:21.672Z,99049.16
2022-12-27T19:01:54.548Z,99044.06
2022-12-27T19:03:27.469Z,99041.66
2022-12-27T19:05:20.582Z,99027.09
2022-12-27T19:07:00.878Z,99025.63
2022-12-27T19:08:46.502Z,99018.34
2022-12-27T19:10:21.805Z,99030.97
2022-12-27T19:11:57.528Z,99037.09
2022-12-27T19:13:40.042Z,99033.78
2022-12-27T19:15:14.558Z,99044.09
2022-12-27T19:17:01.937Z,99039.38
2022-12-27T19:18:38.457Z,99041.34
2022-12-27T19:20:21.666Z,99047.78
2022-12-27T19:21:54.033Z,99049.28
2022-12-27T19:23:39.622Z,99049.81
2022-12-27T19:25:24.966Z,99047.66
2022-12-27T19:27:13.660Z,99054.16
2022-12-27T19:28:55.498Z,99051.13
2022-12-27T19:30:36.129Z,99047.19
2022-12-27T19:32:09.950Z,99044.94
2022-12-27T19:33:54.526Z,99050.69
2022-12-27T19:35:26.259Z,99050.69
2022-12-27T19:36:58.308Z,99051.75
2022-12-27T19:38:33.368Z,99053.50
2022-12-27T19:40:05.663Z,99044.09
2022-12-27T19:41:38.221Z,99049.47
2022-12-27T19:43:10.945Z,99046.72
2022-12-27T19:44:42.538Z,99037.63
2022-12-27T19:46:14.953Z,99045.53
2022-12-27T19:47:51.095Z,99037.19